createdAt,value
2023-05-15T00:01:51.623Z,14.51
2023-05-15T00:05:14.331Z,14.48
2023-05-15T00:08:19.063Z,14.44
2023-05-15T00:11:23.756Z,14.32
2023-05-15T00:14:28.344Z,14.40
2023-05-15T00:17:35.272Z,14.46
2023-05-15T00:20:38.946Z,14.45
2023-05-15T00:23:44.339Z,14.54
2023-05-15T00:27:05.024Z,14.43
2023-05-15T00:30:27.761Z,14.42
2023-05-15T00:33:50.527Z,14.27
2023-05-15T00:37:02.149Z,14.21
2023-05-15T00:40:07.859Z,14.45
2023-05-15T00:43:12.893Z,14.51
2023-05-15T00:46:31.684Z,14.41
2023-05-15T00:49:50.235Z,14.50
2023-05-15T00:53:10.317Z,14.55
2023-05-15T00:56:27.978Z,14.53
2023-05-15T00:59:54.806Z,14.48
2023-05-15T01:03:12.857Z,14.41
2023-05-15T01:06:36.960Z,14.44
2023-05-15T01:10:02.942Z,14.04
2023-05-15T01:13:21.348Z,14.34
2023-05-15T01:16:49.951Z,14.50
2023-05-15T01:20:07.091Z,14.45
2023-05-15T01:24:00.946Z,14.40
2023-05-15T01:27:54.502Z,14.44
2023-05-15T01:31:14.260Z,14.51
2023-05-15T01:34:19.888Z,14.44
2023-05-15T01:37:26.624Z,14.35
2023-05-15T01:40:32.162Z,14.18
2023-05-15T01:43:52.196Z,14.13
2023-05-15T01:47:12.056Z,14.03
2023-05-15T01:50:22.828Z,14.10
2023-05-15T01:53:46.898Z,13.99
2023-05-15T01:56:59.725Z,14.08
2023-05-15T02:00:04.383Z,14.29
2023-05-15T02:03:20.413Z,14.27
2023-05-15T02:06:28.661Z,14.34
2023-05-15T02:09:40.349Z,14.12
2023-05-15T02:12:45.240Z,14.13
2023-05-15T02:15:49.624Z,14.20
2023-05-15T02:18:59.543Z,14.23
2023-05-15T02:22:15.702Z,14.01
2023-05-15T02:26:10.765Z,13.96
2023-05-15T02:29:49.373Z,13.94
2023-05-15T02:33:12.762Z,14.22
2023-05-15T02:36:28.073Z,14.23
2023-05-15T02:39:33.251Z,14.26
2023-05-15T02:42:39.241Z,14.26
2023-05-15T02:45:46.252Z,14.36
2023-05-15T02:48:51.204Z,14.48
2023-05-15T02:51:58.139Z,14.45
2023-05-15T02:55:15.790Z,14.53
2023-05-15T02:58:36.768Z,14.54
2023-05-15T03:02:00.683Z,14.55
2023-05-15T03:05:25.264Z,14.58
2023-05-15T03:08:31.618Z,14.50
2023-05-15T03:11:37.582Z,14.50
2023-05-15T03:14:50.727Z,14.44
2023-05-15T03:18:06.613Z,14.50
2023-05-15T03:21:09.938Z,14.51
2023-05-15T03:24:18.122Z,14.51
2023-05-15T03:27:26.971Z,14.42
2023-05-15T03:30:39.348Z,14.50
2023-05-15T03:34:02.585Z,14.53
2023-05-15T03:37:29.729Z,14.52
2023-05-15T03:40:50.848Z,14.50
2023-05-15T03:44:07.928Z,14.52
2023-05-15T03:47:26.629Z,14.58
2023-05-15T03:50:43.036Z,14.59
2023-05-15T03:53:54.096Z,14.62
2023-05-15T03:57:00.251Z,14.66
2023-05-15T04:00:14.909Z,14.52
2023-05-15T04:03:30.668Z,14.46
2023-05-15T04:06:46.494Z,14.55
2023-05-15T04:10:11.444Z,14.69
2023-05-15T04:13:22.457Z,14.71
2023-05-15T04:16:46.450Z,14.69
2023-05-15T04:20:09.473Z,14.80
2023-05-15T04:23:26.741Z,14.73
2023-05-15T04:26:57.529Z,14.80
2023-05-15T04:30:18.792Z,14.80
2023-05-15T04:33:43.389Z,14.74
2023-05-15T04:37:10.203Z,14.67
2023-05-15T04:40:33.631Z,14.58
2023-05-15T04:43:48.431Z,14.83
2023-05-15T04:46:52.163Z,14.76
2023-05-15T04:50:03.872Z,14.92
2023-05-15T04:53:08.864Z,14.73
2023-05-15T04:56:34.440Z,14.88
2023-05-15T05:00:05.221Z,14.86
2023-05-15T05:03:16.924Z,14.68
2023-05-15T05:06:24.558Z,14.35
2023-05-15T05:09:31.282Z,14.29
2023-05-15T05:12:34.637Z,14.63
2023-05-15T05:15:37.788Z,14.78
2023-05-15T05:18:47.040Z,14.85
2023-05-15T05:22:05.424Z,15.00
2023-05-15T05:25:28.354Z,14.90
2023-05-15T05:28:41.087Z,14.99
2023-05-15T05:31:58.383Z,15.01
2023-05-15T05:35:21.263Z,14.92
2023-05-15T05:38:43.824Z,14.87
2023-05-15T05:41:53.218Z,15.00
2023-05-15T05:44:56.773Z,15.05
2023-05-15T05:48:08.898Z,15.17
2023-05-15T05:51:13.466Z,15.28
2023-05-15T05:54:18.361Z,15.31
2023-05-15T05:57:21.673Z,15.49
2023-05-15T06:00:32.213Z,15.73
2023-05-15T06:03:35.672Z,15.73
2023-05-15T06:06:50.313Z,15.86
2023-05-15T06:10:08.858Z,16.12
2023-05-15T06:13:32.830Z,15.95
2023-05-15T06:16:53.988Z,16.17
2023-05-15T06:20:10.286Z,16.33
2023-05-15T06:23:24.374Z,16.25
2023-05-15T06:26:40.287Z,16.55
2023-05-15T06:30:09.201Z,16.61
2023-05-15T06:33:12.878Z,16.48
2023-05-15T06:36:17.421Z,16.43
2023-05-15T06:39:21.938Z,16.36
2023-05-15T06:42:35.623Z,16.32
2023-05-15T06:45:49.600Z,16.54
2023-05-15T06:48:54.208Z,16.76
2023-05-15T06:51:57.497Z,16.52
2023-05-15T06:55:21.649Z,16.84
2023-05-15T06:58:43.994Z,16.96
2023-05-15T07:02:07.356Z,16.81
2023-05-15T07:05:19.811Z,17.33
2023-05-15T07:08:41.846Z,16.59
2023-05-15T07:11:51.124Z,16.85
2023-05-15T07:14:57.747Z,16.74
2023-05-15T07:18:04.750Z,16.77
2023-05-15T07:21:12.121Z,16.89
2023-05-15T07:24:19.313Z,17.06
2023-05-15T07:27:26.873Z,17.30
2023-05-15T07:30:41.176Z,17.38
2023-05-15T07:33:50.792Z,17.12
2023-05-15T07:37:16.687Z,16.47
2023-05-15T07:40:23.810Z,16.58
2023-05-15T07:43:27.098Z,16.81
2023-05-15T07:51:08.252Z,17.25
2023-05-15T07:54:39.770Z,17.40
2023-05-15T07:58:02.891Z,17.31
2023-05-15T08:01:32.652Z,17.17
2023-05-15T08:04:51.036Z,17.42
2023-05-15T08:08:01.135Z,17.90
2023-05-15T08:11:04.038Z,18.26
2023-05-15T08:14:08.089Z,18.66
2023-05-15T08:17:31.871Z,19.21
2023-05-15T08:20:41.603Z,18.71
2023-05-15T08:23:45.113Z,18.97
2023-05-15T08:27:05.416Z,18.58
2023-05-15T08:30:09.081Z,18.58
2023-05-15T08:33:22.076Z,18.70
2023-05-15T08:36:41.936Z,18.91
2023-05-15T08:39:55.220Z,19.02
2023-05-15T08:43:03.953Z,19.46
2023-05-15T08:46:10.895Z,19.58
2023-05-15T08:49:45.353Z,18.93
2023-05-15T08:52:53.063Z,18.91
2023-05-15T08:55:58.333Z,19.26
2023-05-15T08:59:18.858Z,19.73
2023-05-15T09:02:41.758Z,19.74
2023-05-15T09:05:45.400Z,19.69
2023-05-15T09:09:06.676Z,19.47
2023-05-15T09:12:23.857Z,19.20
2023-05-15T09:15:28.689Z,19.46
2023-05-15T09:18:35.559Z,19.65
2023-05-15T09:21:42.451Z,19.90
2023-05-15T09:24:54.298Z,19.83
2023-05-15T09:28:03.536Z,19.36
2023-05-15T09:31:21.691Z,19.89
2023-05-15T09:34:39.981Z,19.90
2023-05-15T09:37:44.070Z,20.06
2023-05-15T09:41:10.344Z,20.19
2023-05-15T09:44:30.566Z,20.37
2023-05-15T09:47:45.006Z,20.46
2023-05-15T09:51:05.781Z,20.53
2023-05-15T09:54:15.830Z,19.85
2023-05-15T09:57:23.565Z,19.27
2023-05-15T10:01:08.578Z,19.52
2023-05-15T10:04:17.338Z,19.48
2023-05-15T10:07:48.549Z,19.70
2023-05-15T10:11:09.764Z,19.70
2023-05-15T10:14:14.242Z,19.51
2023-05-15T10:17:19.566Z,19.94
2023-05-15T10:20:28.839Z,20.04
2023-05-15T10:23:41.758Z,20.04
2023-05-15T10:27:06.667Z,19.91
2023-05-15T10:30:29.673Z,20.10
2023-05-15T10:34:09.725Z,20.16
2023-05-15T10:37:15.890Z,20.54
2023-05-15T10:40:20.792Z,20.78
2023-05-15T10:43:28.500Z,20.68
2023-05-15T10:46:39.005Z,19.91
2023-05-15T10:49:47.885Z,19.65
2023-05-15T10:53:11.528Z,20.05
2023-05-15T10:56:25.317Z,21.12
2023-05-15T10:59:42.114Z,21.45
2023-05-15T11:03:06.506Z,20.87
2023-05-15T11:06:43.091Z,21.77
2023-05-15T11:10:01.207Z,22.14
2023-05-15T11:13:40.198Z,22.22
2023-05-15T11:17:04.653Z,22.47
2023-05-15T11:20:12.985Z,22.08
2023-05-15T11:24:17.034Z,21.40
2023-05-15T11:27:26.395Z,20.77
2023-05-15T11:30:40.703Z,21.23
2023-05-15T11:33:52.509Z,21.92
2023-05-15T11:37:05.701Z,21.82
2023-05-15T11:40:25.964Z,21.38
2023-05-15T11:43:33.569Z,20.85
2023-05-15T11:46:39.351Z,20.99
2023-05-15T11:50:01.280Z,20.77
2023-05-15T11:53:07.234Z,19.89
2023-05-15T11:56:18.552Z,20.16
2023-05-15T11:59:29.434Z,20.51
2023-05-15T12:02:33.957Z,20.40
2023-05-15T12:05:57.583Z,20.29
2023-05-15T12:09:06.513Z,20.08
2023-05-15T12:12:26.027Z,20.18
2023-05-15T12:15:45.562Z,19.91
2023-05-15T12:19:12.321Z,20.20
2023-05-15T12:22:34.233Z,20.59
2023-05-15T12:25:56.201Z,20.82
2023-05-15T12:29:14.350Z,21.01
2023-05-15T12:32:35.295Z,20.55
2023-05-15T12:35:44.899Z,20.05
2023-05-15T12:38:49.278Z,20.12
2023-05-15T12:41:55.957Z,20.46
2023-05-15T12:45:27.201Z,20.52
2023-05-15T12:49:06.220Z,20.75
2023-05-15T12:52:29.336Z,20.81
2023-05-15T12:55:53.319Z,20.65
2023-05-15T12:59:09.408Z,21.11
2023-05-15T13:02:30.324Z,21.12
2023-05-15T13:06:12.601Z,20.97
2023-05-15T13:09:35.586Z,20.81
2023-05-15T13:12:46.644Z,20.66
2023-05-15T13:15:59.324Z,20.22
2023-05-15T13:19:12.474Z,20.19
2023-05-15T13:22:32.262Z,20.13
2023-05-15T13:25:35.951Z,20.33
2023-05-15T13:28:52.192Z,20.60
2023-05-15T13:31:55.661Z,20.83
2023-05-15T13:34:58.991Z,20.95
2023-05-15T13:38:12.808Z,20.84
2023-05-15T13:41:26.945Z,20.95
2023-05-15T13:44:35.980Z,20.94
2023-05-15T13:47:52.128Z,20.84
2023-05-15T13:50:59.320Z,20.90
2023-05-15T13:54:02.213Z,20.95
2023-05-15T13:57:05.590Z,20.17
2023-05-15T14:00:15.686Z,20.03
2023-05-15T14:03:26.395Z,20.11
2023-05-15T14:06:35.430Z,19.62
2023-05-15T14:09:48.739Z,20.26
2023-05-15T14:12:52.704Z,19.96
2023-05-15T14:15:56.543Z,20.02
2023-05-15T14:19:12.089Z,19.82
2023-05-15T14:22:25.730Z,19.73
2023-05-15T14:25:47.984Z,20.13
2023-05-15T14:29:22.948Z,20.42
2023-05-15T14:32:46.029Z,20.45
2023-05-15T14:36:04.774Z,20.57
2023-05-15T14:39:21.963Z,20.40
2023-05-15T14:42:51.960Z,20.57
2023-05-15T14:46:15.046Z,20.46
2023-05-15T14:49:22.202Z,20.30
2023-05-15T14:52:25.039Z,20.19
2023-05-15T14:55:34.632Z,20.08
2023-05-15T14:58:37.472Z,19.84
2023-05-15T15:01:43.529Z,19.67
2023-05-15T15:04:48.902Z,19.86
2023-05-15T15:08:10.010Z,19.84
2023-05-15T15:11:19.794Z,19.71
2023-05-15T15:14:38.368Z,19.60
2023-05-15T15:17:41.855Z,19.58
2023-05-15T15:20:44.796Z,19.76
2023-05-15T15:24:07.928Z,19.87
2023-05-15T15:27:24.104Z,19.98
2023-05-15T15:30:46.884Z,20.25
2023-05-15T15:33:50.434Z,20.49
2023-05-15T15:36:56.744Z,20.67
2023-05-15T15:40:12.206Z,20.45
2023-05-15T15:43:15.304Z,20.03
2023-05-15T15:46:19.285Z,20.27
2023-05-15T15:49:22.501Z,20.29
2023-05-15T15:52:31.546Z,20.28
2023-05-15T15:55:34.758Z,20.18
2023-05-15T15:58:41.538Z,20.72
2023-05-15T16:01:51.772Z,20.64
2023-05-15T16:04:59.243Z,20.20
2023-05-15T16:12:16.952Z,19.86
2023-05-15T16:15:30.086Z,20.16
2023-05-15T16:18:33.351Z,19.70
2023-05-15T16:21:37.925Z,19.65
2023-05-15T16:24:49.054Z,19.51
2023-05-15T16:28:06.940Z,19.67
2023-05-15T16:31:18.485Z,19.42
2023-05-15T16:34:23.458Z,19.31
2023-05-15T16:37:30.609Z,19.59
2023-05-15T16:40:37.679Z,19.50
2023-05-15T16:43:45.589Z,19.52
2023-05-15T16:46:53.438Z,19.75
2023-05-15T16:49:58.587Z,19.59
2023-05-15T16:53:08.870Z,19.50
2023-05-15T16:56:14.132Z,19.55
2023-05-15T16:59:28.540Z,19.72
2023-05-15T17:02:36.465Z,19.55
2023-05-15T17:05:43.706Z,19.45
2023-05-15T17:08:52.315Z,19.27
2023-05-15T17:12:07.793Z,19.16
2023-05-15T17:15:12.031Z,19.13
2023-05-15T17:18:23.094Z,19.04
2023-05-15T17:21:35.169Z,18.66
2023-05-15T17:24:50.779Z,18.79
2023-05-15T17:27:54.706Z,18.93
2023-05-15T17:31:07.674Z,18.91
2023-05-15T17:34:12.241Z,18.86
2023-05-15T17:37:22.744Z,18.80
2023-05-15T17:40:38.812Z,18.74
2023-05-15T17:44:00.705Z,18.66
2023-05-15T17:47:22.178Z,18.71
2023-05-15T17:50:45.652Z,18.72
2023-05-15T17:54:10.830Z,18.67
2023-05-15T17:57:33.626Z,18.61
2023-05-15T18:00:54.881Z,18.55
2023-05-15T18:04:15.022Z,18.28
2023-05-15T18:07:38.841Z,18.41
2023-05-15T18:10:46.654Z,18.41
2023-05-15T18:13:49.681Z,18.42
2023-05-15T18:17:03.165Z,18.43
2023-05-15T18:20:24.643Z,18.43
2023-05-15T18:23:36.826Z,18.40
2023-05-15T18:26:47.242Z,18.27
2023-05-15T18:29:52.685Z,18.23
2023-05-15T18:33:00.620Z,18.24
2023-05-15T18:36:06.677Z,18.21
2023-05-15T18:39:29.849Z,18.12
2023-05-15T18:42:35.886Z,17.93
2023-05-15T18:45:43.823Z,17.85
2023-05-15T18:48:58.324Z,17.86
2023-05-15T18:52:19.476Z,17.91
2023-05-15T18:55:41.336Z,17.90
2023-05-15T18:58:51.220Z,17.89
2023-05-15T19:02:02.250Z,17.82
2023-05-15T19:05:14.931Z,17.74
2023-05-15T19:08:19.343Z,17.70
2023-05-15T19:11:26.637Z,17.67
2023-05-15T19:14:30.784Z,17.58
2023-05-15T19:17:36.682Z,17.49
2023-05-15T19:20:55.469Z,17.48
2023-05-15T19:24:17.435Z,17.47
2023-05-15T19:27:40.650Z,17.41
2023-05-15T19:30:57.617Z,17.41
2023-05-15T19:34:08.704Z,17.35
2023-05-15T19:37:13.333Z,17.35
2023-05-15T19:40:17.608Z,17.35
2023-05-15T19:43:21.029Z,17.24
2023-05-15T19:46:24.873Z,17.26
2023-05-15T19:49:35.651Z,17.23
2023-05-15T19:52:57.598Z,17.18
2023-05-15T19:56:07.250Z,17.09
2023-05-15T19:59:11.348Z,17.00
2023-05-15T20:02:15.644Z,16.89
2023-05-15T20:05:25.991Z,16.83
2023-05-15T20:08:42.667Z,16.89
2023-05-15T20:11:46.156Z,16.76
2023-05-15T20:15:01.610Z,16.33
2023-05-15T20:18:15.550Z,16.28
2023-05-15T20:21:19.185Z,16.22
2023-05-15T20:24:26.066Z,16.22
2023-05-15T20:27:33.692Z,15.95
2023-05-15T20:30:53.305Z,16.02
2023-05-15T20:34:03.872Z,16.29
2023-05-15T20:37:20.173Z,16.27
2023-05-15T20:40:26.781Z,16.27
2023-05-15T20:43:30.562Z,16.36
2023-05-15T20:46:44.998Z,16.38
2023-05-15T20:49:49.829Z,16.34
2023-05-15T20:52:53.162Z,16.40
2023-05-15T20:56:06.356Z,16.50
2023-05-15T20:59:26.345Z,16.46
2023-05-15T21:02:46.208Z,16.49
2023-05-15T21:05:57.342Z,16.42
2023-05-15T21:09:02.544Z,16.51
2023-05-15T21:12:12.538Z,16.47
2023-05-15T21:15:18.665Z,16.28
2023-05-15T21:18:21.634Z,16.49
2023-05-15T21:21:26.413Z,16.51
2023-05-15T21:24:32.773Z,16.19
2023-05-15T21:27:36.364Z,16.37
2023-05-15T21:30:39.471Z,15.89
2023-05-15T21:33:55.123Z,15.87
2023-05-15T21:37:29.025Z,15.74
2023-05-15T21:40:47.633Z,16.07
2023-05-15T21:44:04.235Z,16.13
2023-05-15T21:47:18.619Z,16.18
2023-05-15T21:50:21.965Z,15.87
2023-05-15T21:53:27.562Z,15.70
2023-05-15T21:56:43.341Z,15.99
2023-05-15T22:00:06.060Z,16.06
2023-05-15T22:03:14.280Z,16.17
2023-05-15T22:06:22.511Z,15.98
2023-05-15T22:09:33.009Z,16.18
2023-05-15T22:12:36.706Z,16.05
2023-05-15T22:15:47.286Z,16.14
2023-05-15T22:18:57.762Z,16.11
2023-05-15T22:22:03.998Z,16.01
2023-05-15T22:25:20.002Z,15.91
2023-05-15T22:28:37.133Z,15.96
2023-05-15T22:31:41.378Z,15.99
2023-05-15T22:34:52.241Z,15.97
2023-05-15T22:38:03.647Z,15.82
2023-05-15T22:41:20.152Z,15.87
2023-05-15T22:44:40.200Z,16.10
2023-05-15T22:48:06.324Z,16.20
2023-05-15T22:51:29.162Z,16.24
2023-05-15T22:54:49.594Z,16.16
2023-05-15T22:58:16.227Z,16.10
2023-05-15T23:01:31.745Z,16.21
2023-05-15T23:04:55.006Z,16.25
2023-05-15T23:08:14.373Z,16.24
2023-05-15T23:11:19.532Z,16.10
2023-05-15T23:14:28.180Z,16.09
2023-05-15T23:17:49.658Z,16.08
2023-05-15T23:21:10.656Z,16.17
2023-05-15T23:24:20.914Z,16.17
2023-05-15T23:27:30.580Z,15.92
2023-05-15T23:30:34.524Z,16.00
2023-05-15T23:33:40.080Z,16.13
2023-05-15T23:36:53.011Z,16.13
2023-05-15T23:40:06.372Z,16.20
2023-05-15T23:43:10.417Z,16.19
2023-05-15T23:46:18.610Z,16.01
2023-05-15T23:49:42.906Z,15.97
2023-05-15T23:53:03.746Z,15.90
2023-05-15T23:56:08.519Z,15.82
2023-05-15T23:59:12.554Z,15.53
